Union City, TN

06:57 AM CDT am 24. Oktober 2014 (GMT -0500)
KTNUNION3 | Change Station
CLOSE
Current Station
Persönliche Wetterstationen
Location: Union City, TN
Höhe: 360 ft
Wetterstationen in der Umgebung

Höhe 360 ft 36.41 °N, 89.05 °W | Updated 7 minutes ago

Teils Wolkig
Teils Wolkig
42.8 °F
gefühlte 43 °F
N
0.0
Wind Wechselnd Wind aus Südost
Gusts 0.0 mph

Heute
Max. -- | schwach -- °F
--% Regenrisiko
Gestern
Max. -- | schwach -- °F
Precip. -- inch
7:11 AM 6:08 PM
Neumond, 0% visible
Druck 30.13 inch
Sichtweite 8.0 Meilen
Wolken Heiter
Windchill 43 °F
Taupunkt 42 °F
Feuchtigkeit 95%
Regen 0.00 inch
Schneehöhe Nicht verfügbar..
UV 0 von 12
Pollen 1.80 von 12
Luftqualität Nicht verfügbar..
Flu Activity Sporadic
METAR KUCY 241135Z AUTO 00000KT 8SM CLR 04/04 A3013 RMK

More Conditions Fewer Conditions

Druck 30.13 inch
Sichtweite 8.0 Meilen
Wolken Heiter
Windchill 43 °F
Taupunkt 42 °F
Feuchtigkeit 95%
Regen 0.00 inch
Schneehöhe Nicht verfügbar..
UV 0 von 12
Pollen 1.80 von 12
Luftqualität Nicht verfügbar..
Flu Activity Sporadic
METAR KUCY 241135Z AUTO 00000KT 8SM CLR 04/04 A3013 RMK

More Conditions Fewer Conditions

10-Day Weather Forecast

Almanac

Astronomie

Oct. 24, 2014 Aufgang Untergang
Genaue Zeit 07:11 CDT 18:08 CDT
Bürgerliche Dämmerung 06:45 CDT 18:34 CDT
Nautische Dämmerung 06:15 CDT 19:04 CDT
Astronomische Dämmerung 05:45 CDT 19:34 CDT
Mond 07:49 CDT 18:49 CDT
Länge des sichtbaren Lichts 11h 49m
Tageslänge
10h 56m
Tomorrow will be 2m 9s shorter.
Neumond, 0% of the Moon is Illuminated
Heute
Neumond
Okt 30
Erstes Viertel
Nov 6
Vollmond
Nov 14
Letztes Viertel
Nov 22
Neu

Heutige Rekorde

State Highs State Lows

Community

WunderPhotos

Upload Photos

1,764,526 Fotos hochgeladen!

Nearby

Schneehöhe

Station Depth Höhe
Kein Neuschnee gemeldet.

Erdbebenaktivität

Stadt Distance Mag. Time & Date
No recent earthquake activity has been reported nearby.
Minimum magnitude displayed is 2.5.

küstennahe Wassertemperaturen

Ort Temperatur
Kein Stationsbericht

Wetterstationen in der Umgebung